Time;durP1;ratioP1;P1;durP2;ratioP2;P2;SDS_P1;SDS_P2;PMS_P1;PMS_P2;Temp;Humidity;BMP_temperature;BMP_pressure;BME280_temperature;BME280_humidity;BME280_pressure;Samples;Min_cycle;Max_cycle;Signal;HPM_P1;HPM_P2
2022/09/25 00:00:12;;;;;;;3.53;2.73;;;;;;;;;;5044614;28;20232;-66
2022/09/25 00:02:44;;;;;;;4.27;2.87;;;;;;;;;;5040122;28;20302;-66
2022/09/25 00:05:26;;;;;;;3.37;2.40;;;;;;;;;;5032956;28;20228;-66
2022/09/25 00:08:09;;;;;;;3.50;2.77;;;;;;;;;;5042748;28;20226;-66
2022/09/25 00:10:51;;;;;;;3.13;2.37;;;;;;;;;;5042381;28;20243;-66
2022/09/25 00:13:23;;;;;;;2.30;2.10;;;;;;;;;;5038085;28;20240;-66
2022/09/25 00:16:07;;;;;;;4.03;2.90;;;;;;;;;;5036651;28;20256;-66
2022/09/25 00:21:29;;;;;;;3.50;2.37;;;;;;;;;;5028302;28;20197;-66
2022/09/25 00:24:06;;;;;;;2.67;2.30;;;;;;;;;;5033911;28;20193;-66
2022/09/25 00:26:40;;;;;;;3.20;2.20;;;;;;;;;;5031250;28;20194;-66
2022/09/25 00:29:16;;;;;;;3.57;2.50;;;;;;;;;;5042055;28;20202;-66
2022/09/25 00:31:47;;;;;;;2.63;2.07;;;;;;;;;;5028409;28;20206;-67
2022/09/25 00:34:18;;;;;;;2.60;1.90;;;;;;;;;;5028563;28;20246;-66
2022/09/25 00:36:51;;;;;;;2.27;1.93;;;;;;;;;;5030796;28;20199;-66
2022/09/25 00:39:33;;;;;;;2.20;2.00;;;;;;;;;;5039643;28;20303;-66
2022/09/25 00:42:02;;;;;;;3.87;2.30;;;;;;;;;;5046450;28;20190;-66
2022/09/25 00:44:51;;;;;;;3.33;2.07;;;;;;;;;;5029077;28;20268;-66
2022/09/25 00:47:25;;;;;;;2.97;2.10;;;;;;;;;;5041948;28;20214;-66
2022/09/25 00:49:54;;;;;;;2.60;2.20;;;;;;;;;;5034455;28;20268;-66
2022/09/25 00:52:26;;;;;;;4.83;2.20;;;;;;;;;;5034050;28;20194;-66
2022/09/25 00:55:04;;;;;;;2.40;1.90;;;;;;;;;;5046536;28;20194;-66
2022/09/25 00:57:37;;;;;;;2.77;1.93;;;;;;;;;;5039281;28;20446;-66
2022/09/25 01:00:09;;;;;;;3.67;1.77;;;;;;;;;;5047024;28;20209;-66
2022/09/25 01:02:44;;;;;;;2.20;2.00;;;;;;;;;;5046602;28;20204;-66
2022/09/25 01:05:18;;;;;;;1.90;1.70;;;;;;;;;;5039612;28;20676;-66
2022/09/25 01:07:52;;;;;;;3.23;2.00;;;;;;;;;;5056533;28;20194;-66
2022/09/25 01:10:24;;;;;;;2.33;2.03;;;;;;;;;;5040072;28;20210;-66
2022/09/25 01:12:54;;;;;;;2.43;1.90;;;;;;;;;;5064085;28;20288;-66
2022/09/25 01:15:31;;;;;;;2.63;1.73;;;;;;;;;;5024230;28;20192;-66
2022/09/25 01:18:21;;;;;;;2.20;1.93;;;;;;;;;;5040216;28;20240;-66
2022/09/25 01:21:03;;;;;;;2.40;1.50;;;;;;;;;;5040237;28;20226;-66
2022/09/25 01:23:53;;;;;;;3.07;2.10;;;;;;;;;;5011952;28;20195;-66
2022/09/25 01:26:42;;;;;;;2.60;1.73;;;;;;;;;;5034896;28;20206;-66
2022/09/25 01:29:24;;;;;;;2.80;1.80;;;;;;;;;;5010118;28;20217;-66
2022/09/25 01:31:54;;;;;;;2.60;1.60;;;;;;;;;;5028430;28;20207;-66
2022/09/25 01:34:35;;;;;;;2.23;1.60;;;;;;;;;;5028513;28;20217;-66
2022/09/25 01:37:09;;;;;;;2.03;1.50;;;;;;;;;;5041912;28;20321;-66
2022/09/25 01:39:51;;;;;;;2.27;1.77;;;;;;;;;;5058763;28;20659;-66
2022/09/25 01:42:33;;;;;;;2.37;1.60;;;;;;;;;;5031665;28;20209;-66
2022/09/25 01:45:04;;;;;;;2.30;1.60;;;;;;;;;;5034614;28;20202;-66
2022/09/25 01:47:38;;;;;;;2.30;1.40;;;;;;;;;;5026739;28;20186;-66
2022/09/25 01:50:16;;;;;;;2.80;1.63;;;;;;;;;;5042573;28;20201;-66
2022/09/25 01:52:48;;;;;;;1.67;1.30;;;;;;;;;;5021447;28;20190;-66
2022/09/25 01:55:34;;;;;;;2.07;1.40;;;;;;;;;;5045999;28;20209;-66
2022/09/25 01:58:29;;;;;;;2.20;1.90;;;;;;;;;;5046083;28;20229;-66
2022/09/25 02:01:25;;;;;;;2.97;1.63;;;;;;;;;;5048530;28;20190;-66
2022/09/25 02:04:10;;;;;;;2.33;1.50;;;;;;;;;;5049010;28;20187;-66
2022/09/25 02:06:44;;;;;;;1.97;1.33;;;;;;;;;;5056784;28;20190;-66
2022/09/25 02:09:18;;;;;;;2.30;1.40;;;;;;;;;;5048273;28;20630;-66
2022/09/25 02:11:59;;;;;;;1.70;1.20;;;;;;;;;;5034908;28;20231;-66
2022/09/25 02:14:35;;;;;;;1.67;1.20;;;;;;;;;;5030627;28;20210;-66
2022/09/25 02:17:12;;;;;;;3.30;1.40;;;;;;;;;;5044569;28;20210;-66
2022/09/25 02:22:34;;;;;;;1.80;1.30;;;;;;;;;;5027916;28;20200;-67
2022/09/25 02:25:18;;;;;;;2.57;1.20;;;;;;;;;;5043199;28;20195;-66
2022/09/25 02:27:52;;;;;;;1.60;1.10;;;;;;;;;;5046632;28;20198;-66
2022/09/25 02:30:22;;;;;;;2.00;1.20;;;;;;;;;;5049028;28;20205;-66
2022/09/25 02:32:56;;;;;;;1.33;0.97;;;;;;;;;;5037035;28;20207;-66
2022/09/25 02:35:30;;;;;;;1.40;1.20;;;;;;;;;;5026307;28;20265;-66
2022/09/25 02:38:03;;;;;;;3.00;1.00;;;;;;;;;;5034614;28;20279;-66
2022/09/25 02:40:42;;;;;;;1.63;1.27;;;;;;;;;;5054694;28;20222;-66
2022/09/25 02:43:27;;;;;;;2.90;1.23;;;;;;;;;;5030939;28;20646;-66
2022/09/25 02:45:56;;;;;;;2.37;1.30;;;;;;;;;;5039865;28;20232;-66
2022/09/25 02:48:37;;;;;;;3.57;1.17;;;;;;;;;;5050193;28;20200;-66
2022/09/25 02:51:20;;;;;;;3.00;1.20;;;;;;;;;;5047660;28;20202;-66
2022/09/25 02:54:09;;;;;;;2.67;1.20;;;;;;;;;;5046229;28;20658;-66
2022/09/25 02:56:45;;;;;;;1.80;1.13;;;;;;;;;;5052534;28;20217;-66
2022/09/25 02:59:19;;;;;;;1.77;1.10;;;;;;;;;;5051710;28;20253;-66
2022/09/25 03:01:49;;;;;;;1.83;1.10;;;;;;;;;;5048493;28;20206;-66
2022/09/25 03:04:24;;;;;;;2.73;1.03;;;;;;;;;;5063887;28;20511;-66
2022/09/25 03:07:02;;;;;;;1.90;1.33;;;;;;;;;;5033671;28;20232;-66
2022/09/25 03:09:38;;;;;;;1.80;1.10;;;;;;;;;;5044085;28;20260;-66
2022/09/25 03:12:06;;;;;;;3.27;1.27;;;;;;;;;;5032401;28;20231;-66
2022/09/25 03:14:51;;;;;;;1.70;1.10;;;;;;;;;;5030747;28;20638;-66
2022/09/25 03:17:24;;;;;;;1.50;0.90;;;;;;;;;;5045637;28;20671;-66
2022/09/25 03:19:56;;;;;;;3.50;1.37;;;;;;;;;;5047430;28;20222;-66
2022/09/25 03:22:26;;;;;;;2.27;1.10;;;;;;;;;;5034525;28;20647;-66
2022/09/25 03:24:59;;;;;;;1.30;0.93;;;;;;;;;;5046397;28;21420;-66
2022/09/25 03:27:43;;;;;;;1.50;0.90;;;;;;;;;;5040597;28;20338;-66
2022/09/25 03:30:14;;;;;;;2.17;0.97;;;;;;;;;;5047956;28;20211;-66
2022/09/25 03:32:43;;;;;;;1.13;1.03;;;;;;;;;;5047336;28;20214;-66
2022/09/25 03:35:14;;;;;;;2.53;1.10;;;;;;;;;;5040733;28;20261;-66
2022/09/25 03:37:44;;;;;;;1.63;1.00;;;;;;;;;;5039091;28;20656;-66
2022/09/25 03:40:15;;;;;;;1.43;0.97;;;;;;;;;;5046889;28;20256;-66
2022/09/25 03:42:46;;;;;;;1.43;0.80;;;;;;;;;;5028400;28;20199;-66
2022/09/25 03:45:22;;;;;;;1.63;1.00;;;;;;;;;;5041711;28;20205;-66
2022/09/25 03:47:54;;;;;;;1.10;0.90;;;;;;;;;;5062347;28;20191;-66
2022/09/25 03:50:26;;;;;;;2.07;0.80;;;;;;;;;;5041989;28;20210;-66
2022/09/25 03:52:58;;;;;;;1.73;1.00;;;;;;;;;;5056485;28;20198;-66
2022/09/25 03:55:30;;;;;;;1.63;0.80;;;;;;;;;;5045949;28;20195;-66
2022/09/25 03:58:02;;;;;;;2.60;1.10;;;;;;;;;;5029903;28;20233;-66
2022/09/25 04:00:33;;;;;;;1.93;1.10;;;;;;;;;;5047262;28;20297;-66
2022/09/25 04:03:05;;;;;;;2.43;1.10;;;;;;;;;;5047115;28;20253;-66
2022/09/25 04:05:37;;;;;;;1.77;1.10;;;;;;;;;;5043241;28;20239;-67
2022/09/25 04:08:12;;;;;;;1.77;0.80;;;;;;;;;;5043925;28;20194;-66
2022/09/25 04:10:43;;;;;;;3.47;1.33;;;;;;;;;;5045569;28;20233;-66
2022/09/25 04:13:13;;;;;;;2.53;1.03;;;;;;;;;;5037316;28;20725;-66
2022/09/25 04:15:42;;;;;;;1.60;1.00;;;;;;;;;;5043760;28;20229;-66
2022/09/25 04:18:17;;;;;;;1.77;0.90;;;;;;;;;;5047731;28;20217;-66
2022/09/25 04:20:50;;;;;;;4.07;0.90;;;;;;;;;;5027927;28;20217;-66
2022/09/25 04:23:26;;;;;;;1.80;1.00;;;;;;;;;;5038844;28;20199;-66
2022/09/25 04:26:01;;;;;;;1.10;0.70;;;;;;;;;;5028342;28;20378;-66
2022/09/25 04:28:44;;;;;;;1.63;0.80;;;;;;;;;;5028006;28;20282;-66
2022/09/25 04:31:15;;;;;;;1.90;0.70;;;;;;;;;;5028735;28;20507;-66
2022/09/25 04:33:47;;;;;;;2.00;0.77;;;;;;;;;;5041347;28;20640;-66
2022/09/25 04:36:17;;;;;;;1.87;1.00;;;;;;;;;;5038778;28;20194;-66
2022/09/25 04:38:48;;;;;;;1.03;0.70;;;;;;;;;;5037924;28;20205;-66
2022/09/25 04:41:18;;;;;;;2.27;1.00;;;;;;;;;;5029775;28;20242;-66
2022/09/25 04:43:50;;;;;;;2.00;1.07;;;;;;;;;;5025212;28;20195;-66
2022/09/25 04:46:21;;;;;;;2.10;0.93;;;;;;;;;;5039456;28;20647;-66
2022/09/25 04:48:52;;;;;;;1.67;0.73;;;;;;;;;;5046419;28;20202;-66
2022/09/25 04:51:23;;;;;;;1.60;0.80;;;;;;;;;;5055086;28;20189;-66
2022/09/25 04:53:53;;;;;;;1.70;0.80;;;;;;;;;;5047375;28;20187;-66
2022/09/25 04:56:22;;;;;;;1.60;0.70;;;;;;;;;;5045093;28;20264;-66
2022/09/25 04:58:54;;;;;;;3.43;1.10;;;;;;;;;;5043984;28;20215;-66
2022/09/25 05:01:28;;;;;;;1.37;0.70;;;;;;;;;;5043137;28;20190;-66
2022/09/25 05:03:58;;;;;;;1.90;0.80;;;;;;;;;;5043840;28;20198;-66
2022/09/25 05:06:35;;;;;;;2.80;0.80;;;;;;;;;;5045103;28;20198;-66
2022/09/25 05:09:17;;;;;;;1.17;0.80;;;;;;;;;;5039199;28;20210;-66
2022/09/25 05:11:52;;;;;;;2.53;0.97;;;;;;;;;;5045362;28;20242;-66
2022/09/25 05:14:33;;;;;;;1.07;0.90;;;;;;;;;;5050843;28;20209;-66
2022/09/25 05:17:05;;;;;;;1.80;0.80;;;;;;;;;;5045353;28;20195;-66
2022/09/25 05:19:35;;;;;;;3.00;0.80;;;;;;;;;;5038267;28;20583;-66
2022/09/25 05:22:06;;;;;;;0.80;0.70;;;;;;;;;;5039319;28;20207;-66
2022/09/25 05:24:37;;;;;;;1.40;0.80;;;;;;;;;;5041693;28;20268;-66
2022/09/25 05:27:08;;;;;;;1.13;0.80;;;;;;;;;;5054890;28;20215;-67
2022/09/25 05:29:35;;;;;;;1.67;0.70;;;;;;;;;;5056859;28;20261;-66
2022/09/25 05:32:07;;;;;;;1.07;0.60;;;;;;;;;;5030873;28;20202;-66
2022/09/25 05:34:38;;;;;;;1.20;0.70;;;;;;;;;;5051150;28;20211;-66
2022/09/25 05:37:12;;;;;;;1.57;0.73;;;;;;;;;;5031871;28;20206;-66
2022/09/25 05:39:45;;;;;;;2.43;0.80;;;;;;;;;;5031307;28;20215;-66
2022/09/25 05:42:18;;;;;;;1.67;0.83;;;;;;;;;;5046994;28;20642;-67
2022/09/25 05:44:50;;;;;;;1.47;1.00;;;;;;;;;;5042378;28;20201;-67
2022/09/25 05:47:19;;;;;;;1.60;0.73;;;;;;;;;;5042254;28;20230;-67
2022/09/25 05:49:49;;;;;;;1.30;0.60;;;;;;;;;;5048699;28;20854;-66
2022/09/25 05:52:19;;;;;;;2.33;0.80;;;;;;;;;;5042272;28;20232;-66
2022/09/25 05:54:49;;;;;;;1.50;0.73;;;;;;;;;;5044617;28;20583;-66
2022/09/25 05:57:22;;;;;;;1.43;0.70;;;;;;;;;;5032734;28;20199;-66
2022/09/25 05:59:52;;;;;;;1.50;0.70;;;;;;;;;;5039858;28;20215;-66
2022/09/25 06:02:25;;;;;;;1.87;0.90;;;;;;;;;;5039721;28;20179;-66
2022/09/25 06:04:59;;;;;;;1.70;1.00;;;;;;;;;;5058964;28;20190;-66
2022/09/25 06:07:30;;;;;;;0.93;0.70;;;;;;;;;;5048303;28;20204;-66
2022/09/25 06:10:01;;;;;;;1.67;0.70;;;;;;;;;;5055333;28;20292;-66
2022/09/25 06:12:30;;;;;;;1.90;0.80;;;;;;;;;;5030048;28;20227;-66
2022/09/25 06:15:12;;;;;;;1.40;0.73;;;;;;;;;;5055936;28;20226;-66
2022/09/25 06:17:40;;;;;;;1.20;0.70;;;;;;;;;;5039566;28;20237;-66
2022/09/25 06:20:12;;;;;;;1.73;1.00;;;;;;;;;;5022538;28;20207;-66
2022/09/25 06:22:52;;;;;;;1.80;1.10;;;;;;;;;;5038884;28;20618;-66
2022/09/25 06:25:31;;;;;;;1.40;0.70;;;;;;;;;;5045542;28;20212;-66
2022/09/25 06:28:07;;;;;;;1.23;0.60;;;;;;;;;;5061246;28;20274;-66
2022/09/25 06:30:39;;;;;;;1.83;0.70;;;;;;;;;;5028970;28;20207;-66
2022/09/25 06:33:12;;;;;;;1.77;0.70;;;;;;;;;;5061272;28;20225;-66
2022/09/25 06:35:44;;;;;;;0.87;0.50;;;;;;;;;;5061192;28;20293;-66
2022/09/25 06:38:15;;;;;;;0.93;0.73;;;;;;;;;;5031726;28;20206;-66
2022/09/25 06:40:43;;;;;;;1.60;0.70;;;;;;;;;;5063971;28;20225;-66
2022/09/25 06:43:15;;;;;;;1.37;0.90;;;;;;;;;;5051901;28;20191;-66
2022/09/25 06:45:50;;;;;;;1.10;0.70;;;;;;;;;;5060270;28;20190;-66
2022/09/25 06:48:22;;;;;;;2.37;1.00;;;;;;;;;;5029366;28;20199;-66
2022/09/25 06:50:57;;;;;;;0.70;0.60;;;;;;;;;;5047635;28;20222;-66
2022/09/25 06:53:30;;;;;;;1.60;0.67;;;;;;;;;;5057477;28;20233;-66
2022/09/25 06:56:01;;;;;;;1.10;0.60;;;;;;;;;;5048370;28;20214;-66
2022/09/25 06:58:32;;;;;;;2.73;0.80;;;;;;;;;;5035271;28;20356;-66
2022/09/25 07:01:01;;;;;;;1.27;0.80;;;;;;;;;;5042279;28;20214;-66
2022/09/25 07:03:45;;;;;;;0.87;0.60;;;;;;;;;;5036667;28;20288;-66
2022/09/25 07:06:25;;;;;;;1.87;0.90;;;;;;;;;;5045240;28;20233;-66
2022/09/25 07:08:57;;;;;;;1.23;0.63;;;;;;;;;;5045835;28;20221;-66
2022/09/25 07:11:27;;;;;;;1.37;0.67;;;;;;;;;;5042235;28;20202;-66
2022/09/25 07:14:00;;;;;;;0.93;0.70;;;;;;;;;;5044122;28;20205;-67
2022/09/25 07:16:29;;;;;;;1.40;0.77;;;;;;;;;;5041855;28;20624;-66
2022/09/25 07:19:02;;;;;;;1.80;0.70;;;;;;;;;;5019397;28;20210;-66
2022/09/25 07:21:38;;;;;;;1.70;0.70;;;;;;;;;;5037907;28;20245;-66
2022/09/25 07:24:09;;;;;;;1.93;0.80;;;;;;;;;;5046793;28;20224;-66
2022/09/25 07:26:41;;;;;;;1.33;0.70;;;;;;;;;;5013646;28;20554;-66
2022/09/25 07:29:12;;;;;;;1.57;0.70;;;;;;;;;;5019863;28;20209;-66
2022/09/25 07:31:43;;;;;;;2.53;1.00;;;;;;;;;;5037282;28;20195;-66
2022/09/25 07:34:15;;;;;;;1.90;0.87;;;;;;;;;;5028773;28;20218;-66
2022/09/25 07:36:46;;;;;;;2.17;0.50;;;;;;;;;;5047671;28;20190;-66
2022/09/25 07:39:17;;;;;;;1.60;0.90;;;;;;;;;;5041166;28;20218;-66
2022/09/25 07:41:53;;;;;;;1.73;0.83;;;;;;;;;;5045435;28;20846;-66
2022/09/25 07:44:25;;;;;;;3.90;0.80;;;;;;;;;;5042287;28;20202;-66
2022/09/25 07:47:02;;;;;;;2.47;1.30;;;;;;;;;;5054379;28;20199;-67
2022/09/25 07:49:36;;;;;;;5.80;1.07;;;;;;;;;;5034535;28;20191;-68
2022/09/25 07:52:07;;;;;;;6.47;1.23;;;;;;;;;;5020219;28;20187;-68
2022/09/25 07:54:41;;;;;;;5.03;1.00;;;;;;;;;;5045353;28;20194;-68
2022/09/25 07:57:13;;;;;;;8.57;0.93;;;;;;;;;;5046517;28;20256;-68
2022/09/25 07:59:44;;;;;;;4.03;1.00;;;;;;;;;;5058363;28;20719;-67
2022/09/25 08:02:14;;;;;;;3.83;1.47;;;;;;;;;;5045928;28;20202;-67
2022/09/25 08:04:47;;;;;;;7.13;1.43;;;;;;;;;;5032192;28;20195;-64
2022/09/25 08:07:18;;;;;;;7.93;1.50;;;;;;;;;;5043658;28;20213;-67
2022/09/25 08:09:47;;;;;;;11.27;1.37;;;;;;;;;;5019785;22;20251;-78
2022/09/25 08:12:15;;;;;;;8.70;1.40;;;;;;;;;;4981947;28;20210;-79
2022/09/25 08:14:42;;;;;;;8.27;1.43;;;;;;;;;;4981615;28;20203;-78
2022/09/25 08:17:09;;;;;;;6.97;1.70;;;;;;;;;;4974822;28;20787;-77
2022/09/25 08:19:36;;;;;;;5.97;1.50;;;;;;;;;;4992633;28;20203;-75
2022/09/25 08:22:05;;;;;;;6.67;1.33;;;;;;;;;;4979225;28;20221;-76
2022/09/25 08:24:33;;;;;;;5.47;1.40;;;;;;;;;;4973608;28;20805;-81
2022/09/25 08:27:02;;;;;;;6.67;1.47;;;;;;;;;;4972286;28;20264;-79
2022/09/25 08:29:29;;;;;;;6.60;1.80;;;;;;;;;;4981258;28;20199;-76
2022/09/25 08:31:58;;;;;;;13.57;2.00;;;;;;;;;;4971584;28;20246;-76
2022/09/25 08:34:25;;;;;;;7.13;1.70;;;;;;;;;;4970374;28;20213;-77
2022/09/25 08:37:08;;;;;;;18.63;2.00;;;;;;;;;;4966233;28;20200;-77
2022/09/25 08:39:35;;;;;;;7.23;1.87;;;;;;;;;;4976410;28;21064;-82
2022/09/25 08:42:02;;;;;;;20.90;2.03;;;;;;;;;;4976608;28;20220;-82
2022/09/25 08:44:38;;;;;;;20.07;2.13;;;;;;;;;;4984146;28;20280;-81
2022/09/25 08:50:14;;;;;;;18.77;2.03;;;;;;;;;;4968793;28;20224;-79
2022/09/25 08:52:43;;;;;;;12.80;2.30;;;;;;;;;;4989368;28;20193;-80
2022/09/25 08:55:24;;;;;;;12.70;2.13;;;;;;;;;;4987319;28;20200;-80
2022/09/25 08:57:54;;;;;;;16.40;2.60;;;;;;;;;;4982480;28;20615;-81
2022/09/25 09:00:23;;;;;;;21.40;3.50;;;;;;;;;;4977071;28;20228;-81
2022/09/25 09:02:50;;;;;;;19.67;4.63;;;;;;;;;;4978232;28;20193;-81
2022/09/25 09:05:23;;;;;;;42.20;5.43;;;;;;;;;;4991560;28;20277;-80
2022/09/25 09:07:56;;;;;;;52.60;6.57;;;;;;;;;;4988469;28;20214;-81
2022/09/25 09:10:30;;;;;;;30.13;4.67;;;;;;;;;;5004281;28;20378;-81
2022/09/25 09:13:00;;;;;;;32.83;6.47;;;;;;;;;;5010955;28;20229;-81
2022/09/25 09:15:36;;;;;;;27.03;4.37;;;;;;;;;;4994936;28;20207;-81
2022/09/25 09:18:22;;;;;;;29.63;4.57;;;;;;;;;;5019922;28;20197;-81
2022/09/25 09:20:51;;;;;;;28.40;4.30;;;;;;;;;;5006270;28;20217;-81
2022/09/25 09:23:20;;;;;;;26.57;4.37;;;;;;;;;;5008743;28;20207;-78
2022/09/25 09:25:47;;;;;;;22.23;2.87;;;;;;;;;;5008276;28;20214;-79
2022/09/25 09:28:14;;;;;;;15.33;2.77;;;;;;;;;;5003537;28;20220;-81
2022/09/25 09:31:00;;;;;;;15.73;2.67;;;;;;;;;;5006197;28;20187;-81
2022/09/25 09:33:37;;;;;;;20.77;2.97;;;;;;;;;;5001802;28;20667;-80
2022/09/25 09:36:16;;;;;;;15.00;2.33;;;;;;;;;;5004662;28;20436;-79
2022/09/25 09:38:55;;;;;;;15.97;2.17;;;;;;;;;;5007031;28;20274;-80
2022/09/25 09:41:44;;;;;;;12.73;2.57;;;;;;;;;;5012570;28;20595;-81
2022/09/25 09:44:22;;;;;;;13.17;2.60;;;;;;;;;;5001751;28;20205;-79
2022/09/25 09:47:04;;;;;;;14.93;2.77;;;;;;;;;;5008009;28;20219;-81
2022/09/25 09:49:35;;;;;;;14.87;2.73;;;;;;;;;;4996548;28;20214;-78
2022/09/25 09:52:02;;;;;;;21.73;2.60;;;;;;;;;;5009272;28;20210;-77
2022/09/25 09:54:34;;;;;;;21.47;2.17;;;;;;;;;;5019375;28;20647;-78
2022/09/25 09:57:05;;;;;;;8.70;2.30;;;;;;;;;;5020502;28;20211;-81
2022/09/25 09:59:44;;;;;;;15.03;2.10;;;;;;;;;;5004650;28;20221;-82
2022/09/25 10:02:17;;;;;;;11.40;2.10;;;;;;;;;;5017482;28;20296;-79
2022/09/25 10:04:45;;;;;;;8.70;1.77;;;;;;;;;;5023389;28;20210;-79
2022/09/25 10:07:15;;;;;;;8.60;1.83;;;;;;;;;;5024687;28;20611;-79
2022/09/25 10:09:42;;;;;;;7.27;1.77;;;;;;;;;;5010913;28;20231;-80
2022/09/25 10:12:24;;;;;;;9.27;1.50;;;;;;;;;;5006615;28;20203;-80
2022/09/25 10:14:51;;;;;;;4.93;1.57;;;;;;;;;;4995141;28;20260;-80
2022/09/25 10:17:20;;;;;;;5.97;1.70;;;;;;;;;;4991440;28;20192;-80
2022/09/25 10:19:48;;;;;;;6.73;1.43;;;;;;;;;;5018392;28;20235;-80
2022/09/25 10:22:16;;;;;;;6.60;1.33;;;;;;;;;;4993662;28;20243;-80
2022/09/25 10:24:53;;;;;;;2.67;0.90;;;;;;;;;;4997534;28;20200;-79
2022/09/25 10:27:35;;;;;;;3.40;1.40;;;;;;;;;;4996583;28;20219;-80
2022/09/25 10:30:08;;;;;;;5.90;1.53;;;;;;;;;;4991421;28;20666;-80
2022/09/25 10:32:41;;;;;;;3.27;1.10;;;;;;;;;;5000310;28;20208;-81
2022/09/25 10:35:16;;;;;;;4.40;1.60;;;;;;;;;;4993421;28;20960;-79
2022/09/25 10:37:43;;;;;;;6.60;1.37;;;;;;;;;;4995072;28;20221;-80
2022/09/25 10:40:30;;;;;;;3.90;1.07;;;;;;;;;;4992751;28;20204;-83
2022/09/25 10:43:19;;;;;;;4.47;1.20;;;;;;;;;;4999373;28;20222;-82
2022/09/25 10:45:54;;;;;;;4.37;1.00;;;;;;;;;;4998372;28;20681;-83
2022/09/25 10:51:17;;;;;;;3.47;1.07;;;;;;;;;;5004653;28;20198;-83
2022/09/25 10:53:45;;;;;;;3.10;0.97;;;;;;;;;;5006449;28;20920;-83
2022/09/25 10:56:17;;;;;;;2.47;0.80;;;;;;;;;;5013363;28;20207;-82
2022/09/25 10:58:55;;;;;;;4.93;1.13;;;;;;;;;;5006992;28;20538;-83
2022/09/25 11:01:30;;;;;;;3.33;0.90;;;;;;;;;;5003468;28;20229;-82
2022/09/25 11:03:58;;;;;;;5.80;1.30;;;;;;;;;;5000877;28;20267;-82
2022/09/25 11:06:33;;;;;;;3.17;0.70;;;;;;;;;;4997301;28;20223;-82
2022/09/25 11:09:03;;;;;;;4.63;0.90;;;;;;;;;;5016071;28;20257;-82
2022/09/25 11:11:31;;;;;;;4.20;1.00;;;;;;;;;;5006156;28;20870;-82
2022/09/25 11:13:59;;;;;;;2.13;1.07;;;;;;;;;;4980812;28;20239;-81
2022/09/25 11:16:45;;;;;;;2.70;0.97;;;;;;;;;;5006396;28;20199;-81
2022/09/25 11:19:14;;;;;;;2.53;0.90;;;;;;;;;;5024016;28;20187;-80
2022/09/25 11:21:58;;;;;;;2.60;0.90;;;;;;;;;;5019142;28;20274;-79
2022/09/25 11:24:41;;;;;;;4.33;1.33;;;;;;;;;;5018306;28;20182;-82
2022/09/25 11:27:20;;;;;;;2.93;0.97;;;;;;;;;;5011759;28;20219;-82
2022/09/25 11:29:57;;;;;;;5.33;0.80;;;;;;;;;;5004657;28;20249;-81
2022/09/25 11:32:53;;;;;;;3.13;1.00;;;;;;;;;;4999029;28;20210;-81
2022/09/25 11:35:24;;;;;;;8.67;1.33;;;;;;;;;;5005873;28;20604;-82
2022/09/25 11:37:54;;;;;;;4.00;0.77;;;;;;;;;;5023760;28;20199;-81
2022/09/25 11:43:45;;;;;;;2.40;0.73;;;;;;;;;;5004112;28;20203;-81
2022/09/25 11:46:18;;;;;;;6.50;1.13;;;;;;;;;;5008270;28;20211;-81
2022/09/25 11:48:55;;;;;;;3.50;0.80;;;;;;;;;;5017572;28;20273;-81
2022/09/25 11:51:23;;;;;;;3.50;1.20;;;;;;;;;;4997153;28;20218;-82
2022/09/25 11:54:02;;;;;;;3.43;0.90;;;;;;;;;;4990747;28;20192;-84
2022/09/25 11:57:00;;;;;;;2.10;0.80;;;;;;;;;;5003537;28;20270;-81
2022/09/25 11:59:30;;;;;;;2.43;0.80;;;;;;;;;;5010189;28;20309;-82
2022/09/25 12:02:11;;;;;;;2.73;0.90;;;;;;;;;;4998005;28;20239;-81
2022/09/25 12:04:45;;;;;;;2.13;0.77;;;;;;;;;;5000278;28;20207;-81
2022/09/25 12:07:12;;;;;;;3.03;0.80;;;;;;;;;;5004799;28;20219;-80
2022/09/25 12:09:41;;;;;;;8.97;2.73;;;;;;;;;;4996693;28;20249;-81
2022/09/25 12:12:20;;;;;;;14.30;5.47;;;;;;;;;;4998995;28;20200;-81
2022/09/25 12:14:56;;;;;;;8.20;4.20;;;;;;;;;;4991897;28;20203;-81
2022/09/25 12:17:32;;;;;;;12.80;3.33;;;;;;;;;;4991709;28;20184;-81
2022/09/25 12:20:03;;;;;;;6.77;2.50;;;;;;;;;;5010349;28;20203;-81
2022/09/25 12:22:49;;;;;;;5.93;2.10;;;;;;;;;;4987906;28;20234;-80
2022/09/25 12:25:36;;;;;;;6.87;2.10;;;;;;;;;;5020025;28;20191;-80
2022/09/25 12:28:24;;;;;;;15.87;2.47;;;;;;;;;;4976854;28;20230;-78
2022/09/25 12:30:52;;;;;;;20.87;3.73;;;;;;;;;;5012662;28;20195;-82
2022/09/25 12:33:38;;;;;;;21.37;3.90;;;;;;;;;;5021285;28;20285;-78
2022/09/25 12:36:07;;;;;;;29.10;4.30;;;;;;;;;;5003700;28;20230;-78
2022/09/25 12:38:40;;;;;;;30.00;3.63;;;;;;;;;;5014481;28;20194;-76
2022/09/25 12:41:07;;;;;;;75.90;7.57;;;;;;;;;;5010857;28;20285;-76
2022/09/25 12:43:40;;;;;;;49.73;5.40;;;;;;;;;;4986320;28;20196;-77
2022/09/25 12:46:21;;;;;;;52.37;6.23;;;;;;;;;;4987818;28;20238;-76
2022/09/25 12:49:00;;;;;;;49.20;5.43;;;;;;;;;;4998041;28;20196;-76
2022/09/25 12:51:40;;;;;;;40.03;4.23;;;;;;;;;;5012310;28;20207;-77
2022/09/25 12:54:19;;;;;;;43.23;4.77;;;;;;;;;;5010796;28;20221;-77
2022/09/25 12:56:54;;;;;;;38.57;3.90;;;;;;;;;;5005266;28;20201;-77
2022/09/25 12:59:43;;;;;;;37.00;4.30;;;;;;;;;;4988407;28;20215;-79
2022/09/25 13:02:19;;;;;;;31.47;3.63;;;;;;;;;;5005398;28;20663;-80
2022/09/25 13:05:05;;;;;;;17.70;2.40;;;;;;;;;;4996172;28;20231;-78
2022/09/25 13:07:34;;;;;;;16.77;2.83;;;;;;;;;;4990891;28;20206;-76
2022/09/25 13:10:02;;;;;;;17.13;2.80;;;;;;;;;;4972576;28;20256;-75
2022/09/25 13:12:32;;;;;;;16.90;2.47;;;;;;;;;;4984205;28;20445;-78
2022/09/25 13:15:07;;;;;;;16.23;2.57;;;;;;;;;;4978792;28;21067;-78
2022/09/25 13:17:35;;;;;;;16.00;2.57;;;;;;;;;;4981758;28;20858;-78
2022/09/25 13:20:21;;;;;;;14.13;2.43;;;;;;;;;;4985117;28;20646;-79
2022/09/25 13:22:48;;;;;;;10.43;2.43;;;;;;;;;;4999646;28;20228;-78
2022/09/25 13:25:17;;;;;;;15.57;2.37;;;;;;;;;;4982574;28;20652;-79
2022/09/25 13:27:45;;;;;;;12.63;2.70;;;;;;;;;;4989905;28;20744;-79
2022/09/25 13:30:26;;;;;;;14.67;3.17;;;;;;;;;;4990974;28;20232;-80
2022/09/25 13:32:55;;;;;;;24.60;3.53;;;;;;;;;;4997734;28;20711;-78
2022/09/25 13:35:23;;;;;;;22.27;4.17;;;;;;;;;;4980001;28;20213;-81
2022/09/25 13:37:51;;;;;;;20.03;3.27;;;;;;;;;;4977192;28;20308;-78
2022/09/25 13:43:23;;;;;;;21.70;3.40;;;;;;;;;;4982307;28;20589;-78
2022/09/25 13:46:09;;;;;;;17.67;3.07;;;;;;;;;;4979593;28;20707;-78
2022/09/25 13:48:36;;;;;;;12.33;3.70;;;;;;;;;;4968457;28;20200;-78
2022/09/25 13:51:22;;;;;;;10.13;3.60;;;;;;;;;;4987180;28;20193;-78
2022/09/25 13:54:01;;;;;;;10.00;3.47;;;;;;;;;;4979293;28;20196;-79
2022/09/25 13:56:40;;;;;;;12.53;3.60;;;;;;;;;;4986187;28;20191;-90
2022/09/25 13:59:11;;;;;;;21.80;3.43;;;;;;;;;;4979763;28;20234;-82
2022/09/25 14:02:05;;;;;;;14.53;3.60;;;;;;;;;;4992234;28;20224;-84
2022/09/25 14:04:37;;;;;;;11.30;2.80;;;;;;;;;;4985269;28;20271;-81
2022/09/25 14:07:18;;;;;;;10.17;3.07;;;;;;;;;;4994192;28;20966;-82
2022/09/25 14:09:47;;;;;;;13.83;3.37;;;;;;;;;;4999737;28;20624;-82
2022/09/25 14:12:19;;;;;;;14.20;3.40;;;;;;;;;;5008868;28;20196;-83
2022/09/25 14:15:02;;;;;;;9.30;3.07;;;;;;;;;;5007365;28;20195;-82
2022/09/25 14:17:31;;;;;;;6.67;2.63;;;;;;;;;;4993110;28;20297;-79
2022/09/25 14:19:59;;;;;;;9.70;2.50;;;;;;;;;;5020573;28;20203;-81
2022/09/25 14:22:42;;;;;;;10.23;2.20;;;;;;;;;;5005749;28;20231;-79
2022/09/25 14:25:31;;;;;;;5.97;2.20;;;;;;;;;;5009329;28;20738;-80
2022/09/25 14:28:00;;;;;;;10.03;2.50;;;;;;;;;;5007873;28;20198;-81
2022/09/25 14:30:28;;;;;;;6.93;2.37;;;;;;;;;;5007850;28;20213;-79
2022/09/25 14:33:11;;;;;;;8.37;2.03;;;;;;;;;;4995447;28;20204;-82
2022/09/25 14:35:47;;;;;;;7.53;1.60;;;;;;;;;;5003538;28;20212;-82
2022/09/25 14:38:20;;;;;;;5.63;1.70;;;;;;;;;;5008035;28;20207;-77
2022/09/25 14:40:49;;;;;;;3.83;1.40;;;;;;;;;;5003662;28;20205;-79
2022/09/25 14:43:17;;;;;;;4.37;1.57;;;;;;;;;;5015248;28;20881;-80
2022/09/25 14:45:59;;;;;;;6.23;1.60;;;;;;;;;;4993792;28;20230;-80
2022/09/25 14:48:32;;;;;;;3.53;1.60;;;;;;;;;;4991107;28;20698;-79
2022/09/25 14:51:02;;;;;;;5.47;2.20;;;;;;;;;;5003177;28;20250;-79
2022/09/25 14:53:38;;;;;;;3.50;1.30;;;;;;;;;;5002664;28;20577;-80
2022/09/25 14:56:11;;;;;;;4.33;1.40;;;;;;;;;;4982446;28;20196;-79
2022/09/25 14:58:45;;;;;;;4.50;1.50;;;;;;;;;;5000837;28;20208;-79
2022/09/25 15:01:16;;;;;;;3.37;1.10;;;;;;;;;;4992575;28;20185;-79
2022/09/25 15:03:48;;;;;;;2.07;1.40;;;;;;;;;;4999975;28;20236;-79
2022/09/25 15:06:29;;;;;;;4.43;1.10;;;;;;;;;;5001006;28;20227;-80
2022/09/25 15:08:56;;;;;;;5.17;1.40;;;;;;;;;;4999891;28;20231;-80
2022/09/25 15:11:28;;;;;;;3.63;1.30;;;;;;;;;;4993075;28;20731;-80
2022/09/25 15:14:09;;;;;;;2.37;1.10;;;;;;;;;;5003752;28;20200;-80
2022/09/25 15:19:26;;;;;;;3.47;1.03;;;;;;;;;;5001338;28;20191;-80
2022/09/25 15:21:54;;;;;;;3.00;0.90;;;;;;;;;;4977804;28;20220;-81
2022/09/25 15:24:26;;;;;;;1.70;0.80;;;;;;;;;;5001273;28;20203;-81
2022/09/25 15:27:02;;;;;;;2.23;0.80;;;;;;;;;;4997055;28;20216;-81
2022/09/25 15:29:32;;;;;;;1.73;0.97;;;;;;;;;;4995118;28;20202;-81
2022/09/25 15:31:59;;;;;;;2.80;1.00;;;;;;;;;;4999559;28;20195;-81
2022/09/25 15:34:28;;;;;;;1.90;0.90;;;;;;;;;;4993853;28;20204;-81
2022/09/25 15:37:14;;;;;;;1.30;0.77;;;;;;;;;;5005593;28;20214;-81
2022/09/25 15:39:42;;;;;;;2.30;0.77;;;;;;;;;;4994357;28;20193;-81
2022/09/25 15:42:13;;;;;;;1.30;0.80;;;;;;;;;;4996322;28;20220;-83